KLEB/LEB METAR and TAF weather

Enter ICAO airport designator
Station Type Date Time Source
KLEB METAR 2019/10/14 05:53 UTC NOAA

KLEB 140553Z AUTO 00000KT 1/4SM FG VV001 04/03 A3001 RMK AO2 SLP162 T00440028 10094 20039 55002


Station Type Date Time Source
KLEB Decoded METAR 2019/10/14 05:53 UTC NOAA

LEBANON MUNICIPAL AIRPORT, NH, United States (KLEB) 43-38N 072-18W 171M
Oct 14, 2019 - 01:53 AM EDT / 2019.10.14 0553 UTC
Wind: Calm:0
Visibility: 1/4 mile(s):0
Sky conditions: obscured
Weather: fog
Temperature: 39.9 F (4.4 C)
Dew Point: 37.0 F (2.8 C)
Relative Humidity: 89%
Pressure (altimeter): 30.01 in. Hg (1016 hPa)
Pressure tendency: 0.01 inches (0.2 hPa) lower than three hours ago
ob: KLEB 140553Z AUTO 00000KT 1/4SM FG VV001 04/03 A3001 RMK AO2 SLP162 T00440028 10094 20039 55002
cycle: 6

Station Type Date Time Source
KLEB TAF 2019/10/14 06:24 UTC NOAA

TAF KLEB 140520Z 1406/1506 00000KT P6SM FEW100
TEMPO 1406/1408 1/4SM FG VV001
FM140800 00000KT 1/4SM FG VV001
FM141300 20005KT P6SM SCT100

Example: see airport list